D/T METAR WX W/DIR W/SPE G/SPE TEMP DEWP
23/03/19 12:50 EGAE 231250Z 28009KT 9999 FEW035 SCT048 10/03 Q1033 W (280°) 10.4mph 10°C 3°C
23/03/19 11:50 EGAE 231150Z 27009KT 9999 SCT028 BKN041 09/02 Q1033 W (270°) 10.4mph 9°C 2°C
23/03/19 11:20 EGAE 231120Z 27011KT 9999 VCSH SCT028 BKN045 10/04 Q1033 VCSH W (270°) 12.7mph 10°C 4°C
23/03/19 10:50 EGAE 231050Z 23012KT 9999 SCT028 SCT045 09/03 Q1033 SW (230°) 13.8mph 9°C 3°C
23/03/19 10:20 EGAE 231020Z 24011KT 9999 SCT032 09/04 Q1033 WSW (240°) 12.7mph 9°C 4°C
23/03/19 09:50 EGAE 230950Z 23010KT 9999 SCT030 08/03 Q1032 SW (230°) 11.5mph 8°C 3°C
23/03/19 09:20 EGAE 230920Z 23007KT 9999 FEW032 07/04 Q1032 SW (230°) 8.1mph 7°C 4°C
23/03/19 08:50 EGAE 230850Z 21008KT 9999 FEW032 06/03 Q1032 SSW (210°) 9.2mph 6°C 3°C
23/03/19 07:50 EGAE 230750Z 23007KT 9999 FEW032 05/02 Q1031 SW (230°) 8.1mph 5°C 2°C
23/03/19 07:20 EGAE 230720Z 22007KT 9999 FEW032 05/02 Q1031 SW (220°) 8.1mph 5°C 2°C
22/03/19 21:20 EGAE 222120Z 24012KT 9999 FEW025 05/01 Q1025 WSW (240°) 13.8mph 5°C 1°C
22/03/19 20:50 EGAE 222050Z 24014KT 220V330 9999 FEW025 06/02 Q1025 WSW (240°) 16.1mph 6°C 2°C
22/03/19 20:20 EGAE 222020Z 24014KT 9999 FEW020 07/03 Q1024 WSW (240°) 16.1mph 7°C 3°C
22/03/19 19:50 EGAE 221950Z 24013KT 9999 FEW017 SCT030 06/03 Q1024 WSW (240°) 15.0mph 6°C 3°C
22/03/19 19:20 EGAE 221920Z 24016KT 9999 FEW020 SCT033 06/03 Q1023 WSW (240°) 18.4mph 6°C 3°C
22/03/19 18:50 EGAE 221850Z 25019G29KT 9999 FEW020 SCT032 07/04 Q1023 RESHRA WSW (250°) 21.9mph 33.4mph 7°C 4°C
22/03/19 18:20 EGAE 221820Z 25017KT 9999 FEW030 08/03 Q1022 WSW (250°) 19.6mph 8°C 3°C
22/03/19 17:50 EGAE 221750Z 26021G32KT 9999 FEW025 SCT034 08/03 Q1022 RESHRA W (260°) 24.2mph 36.8mph 8°C 3°C
22/03/19 17:20 EGAE 221720Z 25019G32KT 9999 SCT035 09/04 Q1021 WSW (250°) 21.9mph 36.8mph 9°C 4°C
22/03/19 16:50 EGAE 221650Z 24018KT 9999 FEW025 SCT047 09/03 Q1021 WSW (240°) 20.7mph 9°C 3°C
22/03/19 16:20 EGAE 221620Z 25019KT 9999 FEW025 SCT047 10/01 Q1020 WSW (250°) 21.9mph 10°C 1°C
22/03/19 15:50 EGAE 221550Z 25022G34KT 9999 -SHRA FEW025 SCT039 11/03 Q1020 -SHRA WSW (250°) 25.3mph 39.1mph 11°C 3°C
22/03/19 15:20 EGAE 221520Z 26020KT 9999 -SHRA FEW022 BKN032 10/05 Q1020 -SHRA W (260°) 23.0mph 10°C 5°C
22/03/19 14:50 EGAE 221450Z 25022G36KT 9999 -SHRA FEW022 BKN036 09/04 Q1019 -SHRA WSW (250°) 25.3mph 41.4mph 9°C 4°C
22/03/19 14:20 EGAE 221420Z 24016KT 9999 -SHRA FEW024 SCT035 11/05 Q1019 -SHRA WSW (240°) 18.4mph 11°C 5°C
22/03/19 13:50 EGAE 221350Z 25024G34KT 9999 -SHRA FEW020 SCT034 10/04 Q1019 -SHRA WSW (250°) 27.6mph 39.1mph 10°C 4°C
22/03/19 13:20 EGAE 221320Z 25019KT 9999 FEW022 SCT035 11/06 Q1018 WSW (250°) 21.9mph 11°C 6°C
22/03/19 12:50 EGAE 221250Z 26018KT 9999 VCSH SCT022 12/06 Q1018 VCSH W (260°) 20.7mph 12°C 6°C
22/03/19 12:20 EGAE 221220Z 23013KT 9999 FEW016 SCT022 11/08 Q1018 SW (230°) 15.0mph 11°C 8°C
22/03/19 11:50 EGAE 221150Z 23013KT 9999 -RA FEW016 SCT023 BKN035 10/07 Q1018 -RA SW (230°) 15.0mph 10°C 7°C
22/03/19 11:20 EGAE 221120Z 24015KT 9999 -RA FEW014 SCT022 BKN041 10/07 Q1017 -RA WSW (240°) 17.3mph 10°C 7°C
22/03/19 10:50 EGAE 221050Z 24017KT 9999 -RA FEW009 SCT022 BKN041 10/07 Q1017 -RA WSW (240°) 19.6mph 10°C 7°C
22/03/19 10:20 EGAE 221020Z 24017KT 9999 -RA FEW007 SCT015 10/08 Q1017 -RA WSW (240°) 19.6mph 10°C 8°C
22/03/19 09:50 EGAE 220950Z 25017G27KT 4000 RA SCT007 BKN011 09/07 Q1016 RA WSW (250°) 19.6mph 31.1mph 9°C 7°C
22/03/19 09:20 EGAE 220920Z 20017KT 7000 -RA FEW007 SCT010 BKN024 11/09 Q1015 -RA SSW (200°) 19.6mph 11°C 9°C
22/03/19 08:50 EGAE 220850Z 20019G29KT 9999 -RA FEW012 SCT019 12/09 Q1015 -RA SSW (200°) 21.9mph 33.4mph 12°C 9°C
22/03/19 08:20 EGAE 220820Z 20017KT 170V230 9999 -RA FEW012 BKN019 11/08 Q1015 -RA SSW (200°) 19.6mph 11°C 8°C
22/03/19 07:50 EGAE 220750Z 20018KT 9999 -RA BKN021 11/08 Q1015 -RA SSW (200°) 20.7mph 11°C 8°C
22/03/19 07:20 EGAE 220720Z 20019KT 9999 BKN023 12/08 Q1015 SSW (200°) 21.9mph 12°C 8°C
22/03/19 06:50 EGAE 220650Z 21018KT 170V230 9999 FEW018 BKN025 11/08 Q1015 SSW (210°) 20.7mph 11°C 8°C
22/03/19 06:20 EGAE 220620Z 21018G29KT 190V250 9999 FEW018 BKN025 12/08 Q1016 SSW (210°) 20.7mph 33.4mph 12°C 8°C
21/03/19 20:50 EGAE 212050Z 19007KT 150V230 9999 FEW017 BKN025 12/08 Q1023 S (190°) 8.1mph 12°C 8°C
21/03/19 20:20 EGAE 212020Z VRB05KT 9999 FEW017 BKN025 12/08 Q1024 N (0°) 5.8mph 12°C 8°C
21/03/19 19:50 EGAE 211950Z VRB05KT 9999 FEW017 BKN025 12/08 Q1025 N (0°) 5.8mph 12°C 8°C
21/03/19 19:20 EGAE 211920Z 19007KT 140V250 9999 FEW017 BKN024 12/08 Q1025 S (190°) 8.1mph 12°C 8°C
21/03/19 18:50 EGAE 211850Z VRB04KT 9999 FEW017 BKN025 13/09 Q1025 N (0°) 4.6mph 13°C 9°C
21/03/19 18:20 EGAE 211820Z 17007KT 140V200 9999 FEW017 BKN022 13/09 Q1025 S (170°) 8.1mph 13°C 9°C
21/03/19 17:50 EGAE 211750Z 20010KT 9999 FEW017 BKN022 13/09 Q1025 SSW (200°) 11.5mph 13°C 9°C
21/03/19 17:20 EGAE 211720Z 19011KT 150V210 9999 FEW018 BKN025 13/09 Q1025 S (190°) 12.7mph 13°C 9°C
21/03/19 16:50 EGAE 211650Z 19011KT 9999 FEW018 SCT025 14/09 Q1026 S (190°) 12.7mph 14°C 9°C
21/03/19 16:20 EGAE 211620Z 19011KT 9999 FEW013 BKN022 14/10 Q1026 S (190°) 12.7mph 14°C 10°C
21/03/19 15:50 EGAE 211550Z 19010KT 160V220 9999 FEW013 BKN022 14/10 Q1027 S (190°) 11.5mph 14°C 10°C
21/03/19 15:20 EGAE 211520Z 20013KT 9999 FEW013 BKN022 14/11 Q1027 SSW (200°) 15.0mph 14°C 11°C
21/03/19 14:50 EGAE 211450Z 20012KT 9999 FEW013 BKN024 14/10 Q1027 SSW (200°) 13.8mph 14°C 10°C
21/03/19 14:20 EGAE 211420Z 22013KT 170V240 9999 FEW011 BKN024 15/10 Q1027 SW (220°) 15.0mph 15°C 10°C
21/03/19 13:50 EGAE 211350Z 22013KT 9999 VCSH FEW011 BKN020 15/11 Q1028 VCSH SW (220°) 15.0mph 15°C 11°C
21/03/19 13:20 EGAE 211320Z 21012KT 170V240 9999 VCSH FEW011 BKN019 15/11 Q1028 VCSH SSW (210°) 13.8mph 15°C 11°C
21/03/19 12:50 EGAE 211250Z 23014KT 9999 VCSH FEW007 BKN017 15/11 Q1028 VCSH SW (230°) 16.1mph 15°C 11°C
21/03/19 12:20 EGAE 211220Z 22012KT 9999 VCSH FEW006 BKN015 BKN048 14/11 Q1029 VCSH SW (220°) 13.8mph 14°C 11°C
21/03/19 11:50 EGAE 211150Z 22012KT 7000 VCSH FEW006 BKN011 14/10 Q1029 VCSH SW (220°) 13.8mph 14°C 10°C
21/03/19 11:20 EGAE 211120Z 23011KT 7000 VCSH FEW006 SCT011 BKN032 14/11 Q1029 VCSH SW (230°) 12.7mph 14°C 11°C
21/03/19 10:50 EGAE 211050Z 24014KT 9999 8000W VCSH FEW009 BKN014 BKN033 13/11 Q1029 VCSH WSW (240°) 16.1mph 13°C 11°C
21/03/19 10:20 EGAE 211020Z 23014KT 9999 VCSH FEW009 BKN014 13/10 Q1029 VCSH SW (230°) 16.1mph 13°C 10°C
21/03/19 09:50 EGAE 210950Z 23013KT 9999 BKN012 13/10 Q1029 SW (230°) 15.0mph 13°C 10°C
21/03/19 09:20 EGAE 210920Z 23011KT 9999 VCSH SCT007 BKN012 13/10 Q1029 VCSH SW (230°) 12.7mph 13°C 10°C
21/03/19 08:50 EGAE 210850Z 23012KT 9999 VCSH FEW007 BKN012 BKN027 12/10 Q1029 VCSH SW (230°) 13.8mph 12°C 10°C
21/03/19 08:20 EGAE 210820Z 22011KT 9999 VCSH FEW007 BKN012 BKN027 12/10 Q1028 VCSH SW (220°) 12.7mph 12°C 10°C
21/03/19 07:50 EGAE 210750Z 22010KT 9999 VCSH FEW007 BKN013 BKN027 12/10 Q1028 VCSH SW (220°) 11.5mph 12°C 10°C
21/03/19 07:20 EGAE 210720Z 23011KT 9999 VCSH FEW007 BKN013 BKN027 12/10 Q1028 VCSH SW (230°) 12.7mph 12°C 10°C
21/03/19 06:50 EGAE 210650Z 23012KT 9999 VCSH FEW007 SCT012 BKN027 12/10 Q1028 VCSH SW (230°) 13.8mph 12°C 10°C
21/03/19 06:20 EGAE 210620Z 22012KT 9999 VCSH FEW007 SCT012 BKN027 12/10 Q1027 VCSH SW (220°) 13.8mph 12°C 10°C
21/03/19 05:50 EGAE 210550Z 23013KT 9999 VCSH FEW008 SCT012 BKN026 12/10 Q1027 VCSH SW (230°) 15.0mph 12°C 10°C
20/03/19 20:50 EGAE 202050Z 23013KT CAVOK 12/08 Q1025 SW (230°) 15.0mph 12°C 8°C
20/03/19 20:20 EGAE 202020Z 23012KT 200V320 9999 FEW045 12/09 Q1025 SW (230°) 13.8mph 12°C 9°C
20/03/19 19:50 EGAE 201950Z 22013G35KT 200V350 9999 FEW035 13/09 Q1025 SW (220°) 15.0mph 40.3mph 13°C 9°C
20/03/19 19:20 EGAE 201920Z 22017KT 9999 FEW018 13/09 Q1025 SW (220°) 19.6mph 13°C 9°C
20/03/19 18:50 EGAE 201850Z 24015KT 9999 FEW014 13/10 Q1025 WSW (240°) 17.3mph 13°C 10°C
20/03/19 18:20 EGAE 201820Z 23011KT 9999 FEW016 SCT028 14/11 Q1025 SW (230°) 12.7mph 14°C 11°C
20/03/19 17:50 EGAE 201750Z 24017KT 9999 SCT016 BKN028 14/11 Q1025 WSW (240°) 19.6mph 14°C 11°C
20/03/19 17:20 EGAE 201720Z 23019KT 9999 BKN020 14/11 Q1024 SW (230°) 21.9mph 14°C 11°C
20/03/19 16:50 EGAE 201650Z 24017KT 9999 FEW014 BKN022 15/12 Q1024 WSW (240°) 19.6mph 15°C 12°C
20/03/19 16:20 EGAE 201620Z 23013KT 9999 -SHRA FEW014 BKN024 16/12 Q1024 -SHRA SW (230°) 15.0mph 16°C 12°C
20/03/19 15:50 EGAE 201550Z 22014KT 9999 FEW018 BKN028 16/11 Q1024 SW (220°) 16.1mph 16°C 11°C
20/03/19 15:20 EGAE 201520Z 22012KT 9999 FEW015 BKN026 15/12 Q1024 SW (220°) 13.8mph 15°C 12°C
20/03/19 14:50 EGAE 201450Z 22012KT 9999 FEW015 BKN022 15/12 Q1024 SW (220°) 13.8mph 15°C 12°C
20/03/19 14:20 EGAE 201420Z 22013KT 9999 FEW014 BKN022 15/11 Q1025 SW (220°) 15.0mph 15°C 11°C
20/03/19 13:50 EGAE 201350Z 22017KT 9999 FEW014 BKN018 15/11 Q1025 SW (220°) 19.6mph 15°C 11°C
20/03/19 13:20 EGAE 201320Z 23020KT 9999 FEW014 BKN019 15/11 Q1025 SW (230°) 23.0mph 15°C 11°C
20/03/19 12:50 EGAE 201250Z 21016KT 9999 FEW014 BKN017 15/11 Q1025 SSW (210°) 18.4mph 15°C 11°C
20/03/19 12:20 EGAE 201220Z 23012KT 9999 FEW014 BKN017 15/11 Q1025 SW (230°) 13.8mph 15°C 11°C
20/03/19 11:50 EGAE 201150Z 22013KT 9999 VCSH FEW010 BKN016 14/11 Q1025 VCSH SW (220°) 15.0mph 14°C 11°C
20/03/19 11:20 EGAE 201120Z 22014KT 9999 FEW010 BKN015 14/11 Q1025 SW (220°) 16.1mph 14°C 11°C
20/03/19 10:50 EGAE 201050Z 22014KT 9999 FEW009 SCT015 14/11 Q1025 SW (220°) 16.1mph 14°C 11°C
20/03/19 10:20 EGAE 201020Z 21010KT 9999 FEW007 SCT013 BKN034 13/10 Q1026 SSW (210°) 11.5mph 13°C 10°C
20/03/19 09:50 EGAE 200950Z 21010KT 9999 FEW007 SCT013 BKN034 12/10 Q1026 SSW (210°) 11.5mph 12°C 10°C
20/03/19 09:20 EGAE 200920Z 22011KT 9999 FEW007 SCT013 BKN035 12/10 Q1026 SW (220°) 12.7mph 12°C 10°C
20/03/19 08:50 EGAE 200850Z 23011KT 9999 FEW006 SCT011 12/09 Q1026 SW (230°) 12.7mph 12°C 9°C
20/03/19 08:20 EGAE 200820Z 22011KT 9999 FEW006 11/10 Q1026 SW (220°) 12.7mph 11°C 10°C
20/03/19 07:20 EGAE 200720Z 22012KT 9999 FEW006 SCT041 11/09 Q1026 SW (220°) 13.8mph 11°C 9°C
20/03/19 06:50 EGAE 200650Z 23011KT 9999 FEW006 SCT046 10/09 Q1026 SW (230°) 12.7mph 10°C 9°C
20/03/19 06:20 EGAE 200620Z 23010KT 9999 FEW007 10/09 Q1025 SW (230°) 11.5mph 10°C 9°C
19/03/19 20:50 EGAE 192050Z 22013G32KT 9999 FEW011 BKN016 11/08 Q1025 SW (220°) 15.0mph 36.8mph 11°C 8°C
19/03/19 20:20 EGAE 192020Z 23012G34KT 9999 FEW011 BKN018 11/08 Q1025 SW (230°) 13.8mph 39.1mph 11°C 8°C
19/03/19 19:20 EGAE 191920Z 22008KT 9999 FEW011 BKN018 11/08 Q1024 SW (220°) 9.2mph 11°C 8°C
19/03/19 18:20 EGAE 191820Z 25011KT 9999 FEW012 BKN018 11/09 Q1024 WSW (250°) 12.7mph 11°C 9°C
19/03/19 17:50 EGAE 191750Z 25011KT 9999 FEW014 BKN018 12/09 Q1024 WSW (250°) 12.7mph 12°C 9°C
19/03/19 17:20 EGAE 191720Z 25017KT 9999 FEW014 BKN017 12/09 Q1023 WSW (250°) 19.6mph 12°C 9°C
19/03/19 16:50 EGAE 191650Z 25017KT 9999 FEW014 BKN017 12/09 Q1023 WSW (250°) 19.6mph 12°C 9°C
19/03/19 16:20 EGAE 191620Z 25014KT 9999 FEW014 BKN017 12/09 Q1023 WSW (250°) 16.1mph 12°C 9°C
19/03/19 15:50 EGAE 191550Z 24016KT 9999 FEW012 BKN017 12/09 Q1023 WSW (240°) 18.4mph 12°C 9°C
19/03/19 15:20 EGAE 191520Z 25017KT 9999 FEW015 BKN020 13/09 Q1022 WSW (250°) 19.6mph 13°C 9°C
19/03/19 14:50 EGAE 191450Z 26020KT 9999 FEW015 SCT025 13/09 Q1022 W (260°) 23.0mph 13°C 9°C
19/03/19 14:20 EGAE 191420Z 25018KT 9999 FEW012 BKN015 13/09 Q1022 WSW (250°) 20.7mph 13°C 9°C
19/03/19 13:50 EGAE 191350Z 26014KT 9999 VCSH FEW010 BKN015 13/10 Q1022 VCSH W (260°) 16.1mph 13°C 10°C
19/03/19 13:20 EGAE 191320Z 24013KT 9999 VCSH FEW010 BKN015 13/11 Q1021 VCSH WSW (240°) 15.0mph 13°C 11°C
19/03/19 12:50 EGAE 191250Z 23016KT 9999 VCSH FEW009 OVC012 13/11 Q1021 VCSH SW (230°) 18.4mph 13°C 11°C
19/03/19 11:50 EGAE 191150Z 22013KT 9999 FEW011 BKN014 13/10 Q1020 SW (220°) 15.0mph 13°C 10°C
19/03/19 11:20 EGAE 191120Z 23014KT 9999 FEW011 BKN014 13/10 Q1020 SW (230°) 16.1mph 13°C 10°C
19/03/19 10:50 EGAE 191050Z 22014KT 9999 FEW011 SCT022 12/10 Q1021 SW (220°) 16.1mph 12°C 10°C
19/03/19 10:20 EGAE 191020Z 22013KT 9999 FEW011 SCT022 BKN048 12/09 Q1020 SW (220°) 15.0mph 12°C 9°C
19/03/19 09:50 EGAE 190950Z 22013KT 9999 -SHRA SCT011 SCT022 BKN036 11/09 Q1020 -SHRA SW (220°) 15.0mph 11°C 9°C
19/03/19 09:20 EGAE 190920Z 22014KT 9999 SCT012 BKN022 10/08 Q1020 SW (220°) 16.1mph 10°C 8°C
19/03/19 08:50 EGAE 190850Z 23011KT 9999 FEW008 BKN013 10/08 Q1020 SW (230°) 12.7mph 10°C 8°C
19/03/19 08:20 EGAE 190820Z 21010KT 9999 FEW008 BKN013 10/08 Q1020 SSW (210°) 11.5mph 10°C 8°C
19/03/19 07:50 EGAE 190750Z 22010KT 9999 FEW010 BKN014 09/07 Q1020 SW (220°) 11.5mph 9°C 7°C
19/03/19 07:20 EGAE 190720Z 21009KT 9999 FEW008 SCT014 BKN022 09/07 Q1020 SSW (210°) 10.4mph 9°C 7°C
19/03/19 06:50 EGAE 190650Z 21012KT 9999 SCT009 BKN014 09/07 Q1020 SSW (210°) 13.8mph 9°C 7°C
19/03/19 06:20 EGAE 190620Z 22011KT 9999 SCT011 BKN020 08/07 Q1020 SW (220°) 12.7mph 8°C 7°C
19/03/19 05:50 EGAE 190550Z 21009KT 9999 FEW013 BKN021 08/07 Q1020 SSW (210°) 10.4mph 8°C 7°C
18/03/19 21:50 EGAE 182150Z 22008G27KT 200V350 8000 DZ BKN012 09/08 Q1021 DZ SW (220°) 9.2mph 31.1mph 9°C 8°C
18/03/19 21:20 EGAE 182120Z 23008KT 200V330 9999 -RADZ FEW012 BKN018 10/08 Q1021 -RA -DZ SW (230°) 9.2mph 10°C 8°C
18/03/19 20:50 EGAE 182050Z 23007KT 220V330 9999 -SHRA SCT012 BKN038 09/08 Q1021 -SHRA SW (230°) 8.1mph 9°C 8°C
18/03/19 20:20 EGAE 182020Z 23008KT 9999 -SHRA SCT012 BKN032 10/09 Q1021 -SHRA SW (230°) 9.2mph 10°C 9°C
18/03/19 19:50 EGAE 181950Z 22007KT 9999 FEW012 SCT022 BKN045 10/08 Q1021 SW (220°) 8.1mph 10°C 8°C
18/03/19 19:20 EGAE 181920Z 23007KT 9999 VCSH FEW012 SCT022 BKN045 10/08 Q1021 VCSH SW (230°) 8.1mph 10°C 8°C
18/03/19 18:20 EGAE 181820Z 25006KT 9999 VCSH FEW012 SCT027 10/08 Q1020 VCSH WSW (250°) 6.9mph 10°C 8°C
18/03/19 17:50 EGAE 181750Z 26007KT 9999 VCSH FEW012 SCT027 10/08 Q1020 VCSH W (260°) 8.1mph 10°C 8°C
18/03/19 17:20 EGAE 181720Z 27008KT 9999 FEW014 SCT027 10/08 Q1019 W (270°) 9.2mph 10°C 8°C
18/03/19 16:50 EGAE 181650Z 28011KT 9999 VCSH FEW014 SCT027 BKN048 11/08 Q1019 VCSH W (280°) 12.7mph 11°C 8°C
18/03/19 16:20 EGAE 181620Z 28011KT 9999 VCSH FEW015 BKN025 11/08 Q1019 VCSH W (280°) 12.7mph 11°C 8°C
18/03/19 15:50 EGAE 181550Z 29011KT 9999 -SHRA FEW015 SCT018 BKN025 11/08 Q1018 -SHRA WNW (290°) 12.7mph 11°C 8°C
18/03/19 15:20 EGAE 181520Z 30012KT 9999 -SHRA FEW015 BKN027 12/09 Q1018 -SHRA WNW (300°) 13.8mph 12°C 9°C
18/03/19 14:50 EGAE 181450Z 29013KT 9999 VCSH FEW015 BKN020 11/08 Q1018 VCSH WNW (290°) 15.0mph 11°C 8°C
18/03/19 14:20 EGAE 181420Z 28013KT 9999 -SHRA SCT016 BKN024 11/09 Q1018 -SHRA W (280°) 15.0mph 11°C 9°C